createdAt,value
2018-12-20T00:02:05.212Z,99936.05
2018-12-20T00:06:10.924Z,99933.22
2018-12-20T00:10:16.581Z,99933.63
2018-12-20T00:14:29.745Z,99934.61
2018-12-20T00:18:30.867Z,99936.17
2018-12-20T00:22:36.655Z,99937.59
2018-12-20T00:26:42.427Z,99934.13
2018-12-20T00:30:48.033Z,99927.90
2018-12-20T00:34:53.797Z,99935.84
2018-12-20T00:38:59.439Z,99933.94
2018-12-20T00:43:05.131Z,99941.50
2018-12-20T00:47:10.791Z,99944.02
2018-12-20T00:51:16.716Z,99934.41
2018-12-20T00:55:22.353Z,99932.16
2018-12-20T00:59:28.148Z,99930.85
2018-12-20T01:03:33.860Z,99920.39
2018-12-20T01:07:39.762Z,99932.75
2018-12-20T01:11:45.923Z,99936.84
2018-12-20T01:15:51.739Z,99943.10
2018-12-20T01:19:57.707Z,99943.59
2018-12-20T01:24:05.338Z,99951.69
2018-12-20T01:28:11.837Z,99956.72
2018-12-20T01:32:17.424Z,99957.94
2018-12-20T01:36:23.131Z,99959.67
2018-12-20T01:40:28.844Z,99957.61
2018-12-20T01:44:34.566Z,99963.52
2018-12-20T01:48:41.056Z,99961.03
2018-12-20T01:52:46.647Z,99962.70
2018-12-20T01:56:52.811Z,99977.44
2018-12-20T02:00:58.581Z,99976.14
2018-12-20T02:05:05.021Z,99967.11
2018-12-20T02:09:11.683Z,99955.20
2018-12-20T02:13:17.276Z,99959.67
2018-12-20T02:17:22.928Z,99960.56
2018-12-20T02:21:28.697Z,99959.99
2018-12-20T02:25:34.528Z,99961.72
2018-12-20T02:29:40.289Z,99961.72
2018-12-20T02:33:46.170Z,99959.25
2018-12-20T02:37:52.379Z,99953.02
2018-12-20T02:41:58.532Z,99945.11
2018-12-20T02:46:04.268Z,99945.65
2018-12-20T02:50:11.036Z,99948.83
2018-12-20T02:54:16.763Z,99941.54
2018-12-20T02:58:22.566Z,99947.02
2018-12-20T03:02:28.441Z,99936.54
2018-12-20T03:06:34.151Z,99941.80
2018-12-20T03:10:40.047Z,99934.66
2018-12-20T03:14:45.645Z,99923.65
2018-12-20T03:18:51.446Z,99919.84
2018-12-20T03:22:57.132Z,99918.92
2018-12-20T03:27:02.941Z,99915.48
2018-12-20T03:31:09.157Z,99918.06
2018-12-20T03:35:17.098Z,99914.38
2018-12-20T03:39:22.980Z,99911.88
2018-12-20T03:43:29.052Z,99920.19
2018-12-20T03:47:34.620Z,99917.84
2018-12-20T03:51:40.554Z,99909.50
2018-12-20T03:55:46.255Z,99911.51
2018-12-20T03:59:52.189Z,99913.56
2018-12-20T04:03:58.438Z,99913.17
2018-12-20T04:08:04.307Z,99910.87
2018-12-20T04:12:10.014Z,99923.52
2018-12-20T04:16:16.112Z,99928.01
2018-12-20T04:20:22.578Z,99932.84
2018-12-20T04:24:28.465Z,99933.80
2018-12-20T04:28:34.210Z,99933.15
2018-12-20T04:32:39.909Z,99928.70
2018-12-20T04:36:45.535Z,99932.84
2018-12-20T04:40:51.509Z,99928.68
2018-12-20T04:44:57.637Z,99930.69
2018-12-20T04:49:03.279Z,99932.92
2018-12-20T04:53:09.066Z,99935.90
2018-12-20T04:57:14.888Z,99934.84
2018-12-20T05:01:21.064Z,99939.34
2018-12-20T05:05:27.361Z,99937.44
2018-12-20T05:09:33.117Z,99933.05
2018-12-20T05:13:38.783Z,99939.00
2018-12-20T05:17:46.491Z,99932.56
2018-12-20T05:21:52.623Z,99931.33
2018-12-20T05:25:58.646Z,99931.87
2018-12-20T05:30:05.450Z,99926.09
2018-12-20T05:34:11.199Z,99926.77
2018-12-20T05:38:16.875Z,99916.82
2018-12-20T05:42:22.657Z,99932.09
2018-12-20T05:46:28.525Z,99931.84
2018-12-20T05:50:35.467Z,99929.29
2018-12-20T05:54:41.250Z,99925.99
2018-12-20T05:58:46.919Z,99927.38
2018-12-20T06:02:52.537Z,99929.31
2018-12-20T06:06:58.888Z,99933.48
2018-12-20T06:11:05.173Z,99936.91
2018-12-20T06:15:11.193Z,99942.25
2018-12-20T06:19:17.438Z,99942.15
2018-12-20T06:23:24.783Z,99943.46
2018-12-20T06:27:31.901Z,99950.13
2018-12-20T06:31:37.611Z,99944.24
2018-12-20T06:35:43.271Z,99950.92
2018-12-20T06:39:49.682Z,99946.93
2018-12-20T06:43:55.405Z,99957.54
2018-12-20T06:48:01.634Z,99956.34
2018-12-20T06:52:09.146Z,99972.66
2018-12-20T06:56:15.742Z,99958.22
2018-12-20T07:00:22.268Z,99954.80
2018-12-20T07:04:30.204Z,99955.05
2018-12-20T07:08:36.443Z,99952.12
2018-12-20T07:12:42.154Z,99957.23
2018-12-20T07:16:47.809Z,99950.41
2018-12-20T07:20:53.534Z,99943.05
2018-12-20T07:24:59.341Z,99951.41
2018-12-20T07:29:05.128Z,99951.98
2018-12-20T07:33:10.834Z,99956.71
2018-12-20T07:37:16.723Z,99950.29
2018-12-20T07:41:22.412Z,99952.56
2018-12-20T07:45:29.373Z,99968.52
2018-12-20T07:49:35.040Z,99970.14
2018-12-20T07:53:40.550Z,99966.04
2018-12-20T07:57:47.066Z,99975.69
2018-12-20T08:01:52.663Z,99968.98
2018-12-20T08:05:58.330Z,99976.81
2018-12-20T08:10:04.345Z,99982.30
2018-12-20T08:14:10.027Z,99989.30
2018-12-20T08:18:15.752Z,99993.53
2018-12-20T08:22:21.425Z,100004.42
2018-12-20T08:26:27.176Z,100000.27
2018-12-20T08:30:32.979Z,100014.13
2018-12-20T08:34:38.544Z,100016.17
2018-12-20T08:38:46.996Z,100026.84
2018-12-20T08:42:52.877Z,100030.83
2018-12-20T08:46:59.192Z,100033.92
2018-12-20T08:51:04.933Z,100049.45
2018-12-20T08:55:11.167Z,100056.56
2018-12-20T08:59:17.086Z,100055.94
2018-12-20T09:03:22.745Z,100055.20
2018-12-20T09:07:28.400Z,100062.69
2018-12-20T09:11:34.046Z,100060.91
2018-12-20T09:15:40.222Z,100063.13
2018-12-20T09:19:46.485Z,100060.21
2018-12-20T09:23:52.304Z,100066.36
2018-12-20T09:27:58.423Z,100069.88
2018-12-20T09:32:04.244Z,100072.72
2018-12-20T09:36:10.798Z,100070.03
2018-12-20T09:40:16.425Z,100077.45
2018-12-20T09:44:22.198Z,100077.72
2018-12-20T09:48:27.905Z,100076.98
2018-12-20T09:52:33.444Z,100071.88
2018-12-20T09:56:39.080Z,100079.50
2018-12-20T10:00:45.114Z,100077.97
2018-12-20T10:04:50.899Z,100073.62
2018-12-20T10:08:57.105Z,100076.31
2018-12-20T10:13:02.916Z,100072.88
2018-12-20T10:17:08.514Z,100071.23
2018-12-20T10:21:14.928Z,100051.80
2018-12-20T10:25:20.467Z,100057.86
2018-12-20T10:29:26.207Z,100052.19
2018-12-20T10:33:31.935Z,100050.22
2018-12-20T10:37:37.819Z,100047.67
2018-12-20T10:41:43.587Z,100048.17
2018-12-20T10:45:49.666Z,100049.48
2018-12-20T10:49:56.092Z,100043.78
2018-12-20T10:54:01.966Z,100034.23
2018-12-20T10:58:09.414Z,100039.41
2018-12-20T11:02:20.419Z,100039.30
2018-12-20T11:06:31.323Z,100032.80
2018-12-20T11:10:37.160Z,100036.93
2018-12-20T11:14:42.990Z,100036.81
2018-12-20T11:18:48.867Z,100032.18
2018-12-20T11:22:55.391Z,100031.41
2018-12-20T11:27:01.382Z,100028.42
2018-12-20T11:31:07.344Z,100025.11
2018-12-20T11:35:13.411Z,100020.05
2018-12-20T11:39:19.918Z,100012.77
2018-12-20T11:43:25.871Z,100009.99
2018-12-20T11:47:32.157Z,100008.10
2018-12-20T11:51:37.791Z,100011.34
2018-12-20T11:55:43.463Z,100016.02
2018-12-20T11:59:49.057Z,100003.59
2018-12-20T12:03:57.554Z,100011.81
2018-12-20T12:12:24.860Z,100008.57
2018-12-20T12:16:30.652Z,100005.21
2018-12-20T12:20:36.308Z,100002.31
2018-12-20T12:24:43.037Z,100009.73
2018-12-20T12:28:48.827Z,100011.47
2018-12-20T12:32:54.806Z,100009.16
2018-12-20T12:37:00.979Z,100008.23
2018-12-20T12:41:06.808Z,100011.47
2018-12-20T12:45:16.384Z,100002.77
2018-12-20T12:49:24.087Z,100006.91
2018-12-20T12:53:30.707Z,100011.23
2018-12-20T12:57:38.176Z,100005.75
2018-12-20T13:01:44.314Z,100019.13
2018-12-20T13:05:50.344Z,100009.19
2018-12-20T13:09:56.292Z,100016.84
2018-12-20T13:14:01.877Z,100011.27
2018-12-20T13:18:13.778Z,100018.39
2018-12-20T13:22:16.386Z,100009.54
2018-12-20T13:26:22.079Z,100017.77
2018-12-20T13:30:27.986Z,100015.06
2018-12-20T13:34:33.770Z,100018.34
2018-12-20T13:38:39.491Z,100026.20
2018-12-20T13:42:45.332Z,100025.50
2018-12-20T13:46:51.157Z,100024.80
2018-12-20T13:50:56.783Z,100028.44
2018-12-20T13:55:02.543Z,100014.59
2018-12-20T13:59:08.192Z,100019.20
2018-12-20T14:03:13.811Z,100023.06
2018-12-20T14:07:20.192Z,100029.48
2018-12-20T14:11:26.048Z,100028.24
2018-12-20T14:15:32.180Z,100028.83
2018-12-20T14:19:37.775Z,100030.72
2018-12-20T14:23:44.005Z,100029.78
2018-12-20T14:27:49.606Z,100024.30
2018-12-20T14:31:55.266Z,100030.87
2018-12-20T14:36:01.436Z,100032.95
2018-12-20T14:40:09.810Z,100035.55
2018-12-20T14:44:15.526Z,100047.30
2018-12-20T14:48:29.002Z,100034.27
2018-12-20T14:52:34.724Z,100039.56
2018-12-20T14:56:40.492Z,100038.95
2018-12-20T15:00:46.117Z,100032.92
2018-12-20T15:04:52.011Z,100037.21
2018-12-20T15:08:58.128Z,100034.70
2018-12-20T15:13:03.791Z,100037.67
2018-12-20T15:17:09.924Z,100023.87
2018-12-20T15:21:16.291Z,100043.70
2018-12-20T15:25:22.582Z,100043.20
2018-12-20T15:29:28.493Z,100039.84
2018-12-20T15:33:34.371Z,100043.70
2018-12-20T15:37:40.040Z,100054.30
2018-12-20T15:41:45.764Z,100044.67
2018-12-20T15:45:51.699Z,100051.94
2018-12-20T15:49:57.459Z,100049.61
2018-12-20T15:54:03.571Z,100058.89
2018-12-20T15:58:09.249Z,100058.89
2018-12-20T16:02:15.208Z,100057.58
2018-12-20T16:06:20.841Z,100068.71
2018-12-20T16:10:27.957Z,100064.97
2018-12-20T16:14:33.751Z,100069.29
2018-12-20T16:18:39.468Z,100072.84
2018-12-20T16:22:45.381Z,100073.00
2018-12-20T16:26:51.201Z,100077.17
2018-12-20T16:30:57.067Z,100072.73
2018-12-20T16:35:02.704Z,100083.02
2018-12-20T16:39:08.820Z,100084.17
2018-12-20T16:43:14.530Z,100089.89
2018-12-20T16:47:20.380Z,100104.69
2018-12-20T16:51:26.054Z,100098.23
2018-12-20T16:55:31.690Z,100102.26
2018-12-20T16:59:37.326Z,100102.38
2018-12-20T17:03:43.519Z,100114.20
2018-12-20T17:07:49.887Z,100104.48
2018-12-20T17:11:56.020Z,100107.12
2018-12-20T17:16:03.480Z,100109.47
2018-12-20T17:20:10.203Z,100108.89
2018-12-20T17:24:16.061Z,100119.92
2018-12-20T17:28:22.008Z,100121.62
2018-12-20T17:32:27.998Z,100120.81
2018-12-20T17:36:33.864Z,100117.03
2018-12-20T17:40:39.610Z,100126.12
2018-12-20T17:44:45.399Z,100133.08
2018-12-20T17:48:51.144Z,100134.85
2018-12-20T17:52:56.772Z,100130.84
2018-12-20T17:57:02.755Z,100131.88
2018-12-20T18:01:08.555Z,100131.80
2018-12-20T18:05:14.458Z,100135.20
2018-12-20T18:09:21.504Z,100134.67
2018-12-20T18:13:27.690Z,100137.64
2018-12-20T18:17:33.851Z,100137.77
2018-12-20T18:21:40.287Z,100144.21
2018-12-20T18:25:47.631Z,100143.98
2018-12-20T18:29:53.695Z,100138.22
2018-12-20T18:34:01.071Z,100127.55
2018-12-20T18:38:10.113Z,100136.91
2018-12-20T18:42:16.792Z,100134.85
2018-12-20T18:46:26.239Z,100145.25
2018-12-20T18:50:33.751Z,100146.30
2018-12-20T18:54:39.709Z,100157.03
2018-12-20T18:58:46.675Z,100155.19
2018-12-20T19:02:52.791Z,100160.87
2018-12-20T19:06:58.723Z,100160.47
2018-12-20T19:11:05.392Z,100162.45
2018-12-20T19:15:11.656Z,100159.66
2018-12-20T19:19:19.532Z,100162.87
2018-12-20T19:23:25.186Z,100159.89
2018-12-20T19:27:31.443Z,100152.16
2018-12-20T19:31:38.178Z,100151.78
2018-12-20T19:35:44.757Z,100149.37
2018-12-20T19:39:55.349Z,100161.78
2018-12-20T19:44:01.848Z,100161.31
2018-12-20T19:48:10.643Z,100159.34
2018-12-20T19:52:17.038Z,100149.05
2018-12-20T19:56:23.226Z,100152.99
2018-12-20T20:00:29.472Z,100146.89
2018-12-20T20:04:35.856Z,100152.48
2018-12-20T20:08:42.613Z,100161.16
2018-12-20T20:12:49.638Z,100152.94
2018-12-20T20:16:55.767Z,100144.13
2018-12-20T20:21:02.516Z,100129.75
2018-12-20T20:25:09.891Z,100142.24
2018-12-20T20:29:16.369Z,100141.69
2018-12-20T20:33:23.241Z,100130.31
2018-12-20T20:37:29.829Z,100126.61
2018-12-20T20:41:35.772Z,100129.98
2018-12-20T20:45:41.833Z,100132.55
2018-12-20T20:49:47.820Z,100131.73
2018-12-20T20:53:54.082Z,100132.87
2018-12-20T20:58:00.224Z,100134.42
2018-12-20T21:02:09.701Z,100131.80
2018-12-20T21:06:16.063Z,100126.92
2018-12-20T21:10:29.260Z,100135.16
2018-12-20T21:14:36.337Z,100128.97
2018-12-20T21:18:42.443Z,100132.73
2018-12-20T21:22:49.482Z,100116.61
2018-12-20T21:26:55.553Z,100126.78
2018-12-20T21:31:03.310Z,100134.16
2018-12-20T21:35:09.630Z,100149.53
2018-12-20T21:39:16.039Z,100137.64
2018-12-20T21:43:24.363Z,100139.10
2018-12-20T21:47:32.346Z,100155.14
2018-12-20T21:51:40.049Z,100148.17
2018-12-20T21:55:47.841Z,100140.75
2018-12-20T22:00:01.201Z,100147.67
2018-12-20T22:04:03.534Z,100144.23
2018-12-20T22:08:10.860Z,100140.75
2018-12-20T22:12:16.622Z,100139.02
2018-12-20T22:16:23.965Z,100128.75
2018-12-20T22:20:31.071Z,100126.97
2018-12-20T22:24:37.753Z,100149.24
2018-12-20T22:28:48.444Z,100142.09
2018-12-20T22:32:54.475Z,100144.14
2018-12-20T22:37:01.285Z,100141.41
2018-12-20T22:41:07.082Z,100148.71
2018-12-20T22:45:13.141Z,100141.41
2018-12-20T22:49:20.147Z,100148.48
2018-12-20T22:53:27.374Z,100156.53
2018-12-20T22:57:34.193Z,100157.27
2018-12-20T23:01:40.480Z,100143.16
2018-12-20T23:05:46.774Z,100136.07
2018-12-20T23:09:52.779Z,100143.27
2018-12-20T23:13:58.630Z,100152.47
2018-12-20T23:18:05.394Z,100154.17
2018-12-20T23:22:11.558Z,100137.81
2018-12-20T23:26:17.988Z,100143.69
2018-12-20T23:30:24.152Z,100134.25
2018-12-20T23:34:31.231Z,100123.47
2018-12-20T23:38:38.083Z,100121.92
2018-12-20T23:42:44.159Z,100128.87
2018-12-20T23:46:51.222Z,100124.94
2018-12-20T23:50:57.924Z,100126.48
2018-12-20T23:55:04.395Z,100120.98
2018-12-20T23:59:10.467Z,100120.60
